Time,TemperatureF,DewpointF,PressureIn,WindDirection,WindDirectionDegrees,WindSpeedMPH,WindSpeedGustMPH,Humidity,HourlyPrecipIn,Conditions,Clouds,dailyrainin,SoftwareType,DateUTC
2013-03-21 00:02:00,32.4,26.3,29.80,North,351,1.0,2.0,78,0.00,,---,0.00,VWS V14.01,2013-03-21 04:02:00,
2013-03-21 00:07:00,32.1,25.4,29.80,West,268,7.0,7.0,76,0.00,,---,0.00,VWS V14.01,2013-03-21 04:07:00,
2013-03-21 00:12:00,31.9,24.9,29.80,NW,313,3.0,3.0,75,0.00,,---,0.00,VWS V14.01,2013-03-21 04:12:00,
2013-03-21 00:17:00,31.8,24.8,29.80,NW,309,5.0,6.0,75,0.00,,---,0.00,VWS V14.01,2013-03-21 04:17:00,
2013-03-21 00:18:00,31.8,24.8,29.80,NW,310,1.0,3.0,75,0.00,,---,0.00,VWS V14.01,2013-03-21 04:18:00,
2013-03-21 00:22:00,31.8,24.8,29.80,NNE,14,0.0,0.0,75,0.00,,---,0.00,VWS V14.01,2013-03-21 04:22:00,
2013-03-21 00:23:00,31.8,24.8,29.80,NNE,14,0.0,0.0,75,0.00,,---,0.00,VWS V14.01,2013-03-21 04:23:00,
2013-03-21 00:27:00,31.8,24.8,29.80,NNE,31,2.0,2.0,75,0.00,,---,0.00,VWS V14.01,2013-03-21 04:27:00,
2013-03-21 00:28:00,31.8,24.5,29.80,NNW,331,4.0,5.0,74,0.00,,---,0.00,VWS V14.01,2013-03-21 04:28:00,
2013-03-21 00:32:00,31.6,24.3,29.81,North,5,0.0,0.0,74,0.00,,---,0.00,VWS V14.01,2013-03-21 04:32:00,
2013-03-21 00:33:00,31.6,24.3,29.81,North,5,0.0,0.0,74,0.00,,---,0.00,VWS V14.01,2013-03-21 04:33:00,
2013-03-21 00:37:00,31.6,24.3,29.81,NNW,337,3.0,3.0,74,0.00,,---,0.00,VWS V14.01,2013-03-21 04:37:00,
2013-03-21 00:38:00,31.6,24.3,29.81,NNW,338,1.0,3.0,74,0.00,,---,0.00,VWS V14.01,2013-03-21 04:38:00,
2013-03-21 00:42:00,31.6,24.0,29.81,NW,321,2.0,3.0,73,0.00,,---,0.00,VWS V14.01,2013-03-21 04:42:00,
2013-03-21 00:43:00,31.6,24.0,29.81,NW,321,2.0,2.0,73,0.00,,---,0.00,VWS V14.01,2013-03-21 04:43:00,
2013-03-21 00:47:00,31.6,24.0,29.80,WNW,299,5.0,5.0,73,0.00,,---,0.00,VWS V14.01,2013-03-21 04:47:00,
2013-03-21 00:48:00,31.6,24.0,29.80,WNW,299,0.0,0.0,73,0.00,,---,0.00,VWS V14.01,2013-03-21 04:48:00,
2013-03-21 00:52:00,31.6,24.0,29.80,NW,324,2.0,3.0,73,0.00,,---,0.00,VWS V14.01,2013-03-21 04:52:00,
2013-03-21 00:53:00,31.6,24.0,29.80,NW,324,3.0,3.0,73,0.00,,---,0.00,VWS V14.01,2013-03-21 04:53:00,
2013-03-21 00:57:00,31.6,24.0,29.80,WNW,284,1.0,1.0,73,0.00,,---,0.00,VWS V14.01,2013-03-21 04:57:00,
2013-03-21 00:58:00,31.5,23.9,29.80,WNW,284,0.0,0.0,73,0.00,,---,0.00,VWS V14.01,2013-03-21 04:58:00,
2013-03-21 01:02:00,31.5,23.9,29.80,WNW,284,0.0,0.0,73,0.00,,---,0.00,VWS V14.01,2013-03-21 05:02:00,
2013-03-21 01:03:00,31.5,23.9,29.80,WNW,284,0.0,0.0,73,0.00,,---,0.00,VWS V14.01,2013-03-21 05:03:00,
2013-03-21 01:07:00,31.5,23.5,29.80,WNW,292,0.0,3.0,72,0.00,,---,0.00,VWS V14.01,2013-03-21 05:07:00,
2013-03-21 01:08:00,31.5,23.5,29.80,WNW,292,1.0,1.0,72,0.00,,---,0.00,VWS V14.01,2013-03-21 05:08:00,
2013-03-21 01:12:00,31.5,23.5,29.80,NW,322,5.0,10.0,72,0.00,,---,0.00,VWS V14.01,2013-03-21 05:12:00,
2013-03-21 01:13:00,31.5,23.5,29.80,North,355,3.0,4.0,72,0.00,,---,0.00,VWS V14.01,2013-03-21 05:13:00,
2013-03-21 01:18:00,31.5,23.2,29.79,NW,325,0.0,0.0,71,0.00,,---,0.00,VWS V14.01,2013-03-21 05:18:00,
2013-03-21 01:22:00,31.5,22.5,29.79,WNW,298,4.0,10.0,69,0.00,,---,0.00,VWS V14.01,2013-03-21 05:22:00,
2013-03-21 01:23:00,31.5,22.5,29.79,West,267,6.0,6.0,69,0.00,,---,0.00,VWS V14.01,2013-03-21 05:23:00,
2013-03-21 01:28:00,31.5,22.2,29.79,West,281,0.0,0.0,68,0.00,,---,0.00,VWS V14.01,2013-03-21 05:28:00,
2013-03-21 01:33:00,31.6,21.9,29.79,WNW,302,0.0,1.0,67,0.00,,---,0.00,VWS V14.01,2013-03-21 05:33:00,
2013-03-21 01:34:00,31.6,21.9,29.79,NNW,331,0.0,0.0,67,0.00,,---,0.00,VWS V14.01,2013-03-21 05:34:00,
2013-03-21 01:38:00,31.5,21.5,29.79,NNW,330,2.0,2.0,66,0.00,,---,0.00,VWS V14.01,2013-03-21 05:38:00,
2013-03-21 01:39:00,31.5,21.5,29.79,WNW,290,1.0,6.0,66,0.00,,---,0.00,VWS V14.01,2013-03-21 05:39:00,
2013-03-21 01:43:00,31.5,21.5,29.79,NNW,344,0.0,0.0,66,0.00,,---,0.00,VWS V14.01,2013-03-21 05:43:00,
2013-03-21 01:44:00,31.5,21.5,29.79,NW,305,3.0,4.0,66,0.00,,---,0.00,VWS V14.01,2013-03-21 05:44:00,
2013-03-21 01:48:00,31.5,21.5,29.79,NW,304,0.0,2.0,66,0.00,,---,0.00,VWS V14.01,2013-03-21 05:48:00,
2013-03-21 01:49:00,31.5,21.5,29.79,NNW,336,8.0,8.0,66,0.00,,---,0.00,VWS V14.01,2013-03-21 05:49:00,
2013-03-21 01:53:00,31.3,21.3,29.79,North,350,0.0,4.0,66,0.00,,---,0.00,VWS V14.01,2013-03-21 05:53:00,
2013-03-21 01:54:00,31.3,21.3,29.79,North,351,2.0,2.0,66,0.00,,---,0.00,VWS V14.01,2013-03-21 05:54:00,
2013-03-21 01:58:00,31.3,21.3,29.79,North,351,3.0,12.0,66,0.00,,---,0.00,VWS V14.01,2013-03-21 05:58:00,
2013-03-21 01:59:00,31.3,21.3,29.79,NNW,328,6.0,6.0,66,0.00,,---,0.00,VWS V14.01,2013-03-21 05:59:00,
2013-03-21 02:03:00,31.3,21.3,29.78,WNW,299,13.0,13.0,66,0.00,,---,0.00,VWS V14.01,2013-03-21 06:03:00,
2013-03-21 02:04:00,31.3,21.3,29.78,NNW,327,4.0,13.0,66,0.00,,---,0.00,VWS V14.01,2013-03-21 06:04:00,
2013-03-21 02:08:00,31.2,20.8,29.78,NNW,342,1.0,5.0,65,0.00,,---,0.00,VWS V14.01,2013-03-21 06:08:00,
2013-03-21 02:09:00,31.2,20.8,29.78,NNW,342,0.0,1.0,65,0.00,,---,0.00,VWS V14.01,2013-03-21 06:09:00,
2013-03-21 02:13:00,31.2,20.8,29.78,WNW,291,0.0,6.0,65,0.00,,---,0.00,VWS V14.01,2013-03-21 06:13:00,
2013-03-21 02:14:00,31.0,20.6,29.78,NNW,344,1.0,3.0,65,0.00,,---,0.00,VWS V14.01,2013-03-21 06:14:00,
2013-03-21 02:18:00,31.0,20.6,29.78,North,360,0.0,6.0,65,0.00,,---,0.00,VWS V14.01,2013-03-21 06:18:00,
2013-03-21 02:19:00,31.0,20.6,29.78,North,350,1.0,11.0,65,0.00,,---,0.00,VWS V14.01,2013-03-21 06:19:00,
2013-03-21 02:23:00,31.0,20.3,29.78,NNW,337,1.0,2.0,64,0.00,,---,0.00,VWS V14.01,2013-03-21 06:23:00,
2013-03-21 02:24:00,31.0,20.3,29.78,WNW,290,2.0,4.0,64,0.00,,---,0.00,VWS V14.01,2013-03-21 06:24:00,
2013-03-21 02:28:00,30.9,19.8,29.78,WNW,302,0.0,4.0,63,0.00,,---,0.00,VWS V14.01,2013-03-21 06:28:00,
2013-03-21 02:29:00,30.9,19.8,29.78,NW,319,4.0,5.0,63,0.00,,---,0.00,VWS V14.01,2013-03-21 06:29:00,
2013-03-21 02:33:00,30.9,19.4,29.78,WNW,300,6.0,10.0,62,0.00,,---,0.00,VWS V14.01,2013-03-21 06:33:00,
2013-03-21 02:34:00,30.7,19.2,29.78,NNW,327,3.0,6.0,62,0.00,,---,0.00,VWS V14.01,2013-03-21 06:34:00,
2013-03-21 02:39:00,30.7,18.9,29.78,NNW,334,7.0,7.0,61,0.00,,---,0.00,VWS V14.01,2013-03-21 06:39:00,
2013-03-21 02:44:00,30.6,18.4,29.78,NW,306,2.0,5.0,60,0.00,,---,0.00,VWS V14.01,2013-03-21 06:44:00,
2013-03-21 02:45:00,30.6,18.4,29.78,NW,306,2.0,5.0,60,0.00,,---,0.00,VWS V14.01,2013-03-21 06:45:00,
2013-03-21 02:49:00,30.6,18.0,29.79,NW,305,0.0,3.0,59,0.00,,---,0.00,VWS V14.01,2013-03-21 06:49:00,
2013-03-21 02:50:00,30.6,18.0,29.79,NW,305,0.0,0.0,59,0.00,,---,0.00,VWS V14.01,2013-03-21 06:50:00,
2013-03-21 02:54:00,30.4,17.8,29.79,NW,305,0.0,1.0,59,0.00,,---,0.00,VWS V14.01,2013-03-21 06:54:00,
2013-03-21 02:55:00,30.4,17.8,29.79,NW,306,0.0,1.0,59,0.00,,---,0.00,VWS V14.01,2013-03-21 06:55:00,
2013-03-21 02:59:00,30.3,17.7,29.79,NNW,342,2.0,4.0,59,0.00,,---,0.00,VWS V14.01,2013-03-21 06:59:00,
2013-03-21 03:00:00,30.3,17.7,29.79,NNW,342,0.0,0.0,59,0.00,,---,0.00,VWS V14.01,2013-03-21 07:00:00,
2013-03-21 03:04:00,30.3,17.7,29.78,NW,310,0.0,0.0,59,0.00,,---,0.00,VWS V14.01,2013-03-21 07:04:00,
2013-03-21 03:05:00,30.1,17.5,29.78,NNW,347,1.0,4.0,59,0.00,,---,0.00,VWS V14.01,2013-03-21 07:05:00,
2013-03-21 03:09:00,30.1,17.5,29.78,NW,321,2.0,3.0,59,0.00,,---,0.00,VWS V14.01,2013-03-21 07:09:00,
2013-03-21 03:10:00,30.1,17.1,29.78,NW,315,1.0,1.0,58,0.00,,---,0.00,VWS V14.01,2013-03-21 07:10:00,
2013-03-21 03:14:00,30.0,17.0,29.78,NW,313,0.0,3.0,58,0.00,,---,0.00,VWS V14.01,2013-03-21 07:14:00,
2013-03-21 03:15:00,30.0,17.0,29.78,NW,313,0.0,0.0,58,0.00,,---,0.00,VWS V14.01,2013-03-21 07:15:00,